Time;durP1;ratioP1;P1;durP2;ratioP2;P2;SDS_P1;SDS_P2;PMS_P1;PMS_P2;Temp;Humidity;BMP_temperature;BMP_pressure;BME280_temperature;BME280_humidity;BME280_pressure;Samples;Min_cycle;Max_cycle;Signal;HPM_P1;HPM_P2
2022/01/09 00:00:23;;;;;;;18.67;9.95;;;;;;;4.01;100.00;98699.53;5068057;28;20118;-72
2022/01/09 00:02:50;;;;;;;18.40;9.35;;;;;;;3.93;100.00;98705.69;5066897;28;20036;-73
2022/01/09 00:05:16;;;;;;;18.60;10.95;;;;;;;4.00;100.00;98705.25;5073009;28;20048;-70
2022/01/09 00:07:41;;;;;;;18.58;9.32;;;;;;;3.95;100.00;98703.47;5077138;28;20101;-73
2022/01/09 00:10:08;;;;;;;17.55;10.77;;;;;;;3.94;100.00;98706.50;5061940;28;20143;-71
2022/01/09 00:12:34;;;;;;;14.98;9.80;;;;;;;3.97;100.00;98712.06;5070560;28;20029;-72
2022/01/09 00:15:00;;;;;;;18.42;10.45;;;;;;;4.02;100.00;98711.91;5068980;28;20068;-72
2022/01/09 00:17:25;;;;;;;19.73;11.30;;;;;;;4.07;100.00;98711.78;5062783;28;20083;-72
2022/01/09 00:19:51;;;;;;;15.27;10.02;;;;;;;4.11;100.00;98711.16;5074403;28;20639;-71
2022/01/09 00:22:20;;;;;;;19.00;11.80;;;;;;;4.18;100.00;98714.97;5059237;28;20817;-71
2022/01/09 00:24:46;;;;;;;27.70;13.80;;;;;;;4.18;100.00;98703.38;5056311;28;20050;-72
2022/01/09 00:27:11;;;;;;;28.15;13.13;;;;;;;4.11;100.00;98711.94;5072251;28;20039;-72
2022/01/09 00:29:36;;;;;;;24.33;13.35;;;;;;;4.16;100.00;98716.38;5077585;28;20028;-70
2022/01/09 00:32:02;;;;;;;22.10;11.43;;;;;;;4.14;100.00;98715.91;5063243;28;20036;-73
2022/01/09 00:34:28;;;;;;;22.90;11.77;;;;;;;4.19;100.00;98711.19;5068973;28;20862;-72
2022/01/09 00:36:53;;;;;;;20.17;11.68;;;;;;;4.15;100.00;98712.91;5069847;28;20100;-72
2022/01/09 00:39:18;;;;;;;21.77;11.43;;;;;;;4.17;100.00;98710.69;5052220;28;20155;-72
2022/01/09 00:41:44;;;;;;;24.30;12.98;;;;;;;4.25;100.00;98715.31;5073440;28;20051;-73
2022/01/09 00:44:09;;;;;;;22.50;12.38;;;;;;;4.19;100.00;98723.84;5078634;28;20036;-73
2022/01/09 00:46:35;;;;;;;17.95;11.93;;;;;;;4.21;100.00;98732.44;5053167;28;20055;-72
2022/01/09 00:49:01;;;;;;;23.05;12.95;;;;;;;4.25;100.00;98749.59;5043269;28;20638;-72
2022/01/09 00:51:27;;;;;;;25.90;13.63;;;;;;;4.27;100.00;98747.38;5047674;28;20338;-73
2022/01/09 00:53:52;;;;;;;27.30;15.13;;;;;;;4.12;100.00;98739.72;5039587;28;20037;-72
2022/01/09 00:56:18;;;;;;;26.90;15.38;;;;;;;4.18;100.00;98736.53;5050598;28;20492;-71
2022/01/09 00:58:43;;;;;;;24.63;14.73;;;;;;;4.19;100.00;98737.34;5039938;28;20553;-72
2022/01/09 01:01:09;;;;;;;25.42;14.45;;;;;;;4.28;100.00;98746.28;5038825;28;20041;-72
2022/01/09 01:03:34;;;;;;;25.13;14.93;;;;;;;4.27;100.00;98741.97;5044005;28;20044;-71
2022/01/09 01:06:01;;;;;;;25.20;15.13;;;;;;;4.28;100.00;98743.56;5046785;28;20055;-72
2022/01/09 01:08:26;;;;;;;25.10;15.52;;;;;;;4.29;100.00;98756.75;5044281;28;20041;-70
2022/01/09 01:10:52;;;;;;;27.67;16.25;;;;;;;4.20;100.00;98747.81;5044549;28;20095;-75
2022/01/09 01:13:17;;;;;;;29.20;16.73;;;;;;;4.28;100.00;98754.38;5045999;28;20049;-73
2022/01/09 01:15:43;;;;;;;34.28;17.30;;;;;;;4.42;100.00;98765.03;5044321;28;20126;-73
2022/01/09 01:18:08;;;;;;;28.70;17.08;;;;;;;4.34;100.00;98769.31;5045558;28;20025;-73
2022/01/09 01:20:33;;;;;;;33.00;17.83;;;;;;;4.28;100.00;98771.34;5063093;28;20040;-71
2022/01/09 01:22:59;;;;;;;35.25;18.80;;;;;;;4.26;100.00;98780.84;5064452;28;20552;-71
2022/01/09 01:25:25;;;;;;;32.53;17.92;;;;;;;4.32;100.00;98782.31;5062702;28;20047;-71
2022/01/09 01:27:51;;;;;;;33.38;18.13;;;;;;;4.43;100.00;98789.00;5064099;28;20195;-73
2022/01/09 01:30:17;;;;;;;31.00;17.85;;;;;;;4.44;100.00;98790.59;5066231;28;20109;-72
2022/01/09 01:32:43;;;;;;;32.88;17.83;;;;;;;4.32;100.00;98810.06;5066808;28;20155;-70
2022/01/09 01:35:10;;;;;;;32.03;16.67;;;;;;;4.44;100.00;98804.09;5065100;28;20080;-72
2022/01/09 01:37:38;;;;;;;30.38;16.92;;;;;;;4.47;100.00;98808.84;5066554;28;20075;-70
2022/01/09 01:40:06;;;;;;;29.10;16.63;;;;;;;4.56;100.00;98813.50;5053790;28;20048;-71
2022/01/09 01:42:31;;;;;;;33.03;16.52;;;;;;;4.56;100.00;98816.19;5046719;28;20049;-71
2022/01/09 01:44:57;;;;;;;30.05;16.80;;;;;;;4.53;100.00;98825.72;5046249;28;20049;-71
2022/01/09 01:47:22;;;;;;;24.85;13.52;;;;;;;4.52;100.00;98837.63;5046249;28;20041;-72
2022/01/09 01:49:49;;;;;;;23.88;14.57;;;;;;;4.42;100.00;98837.88;5056899;28;20314;-71
2022/01/09 01:52:16;;;;;;;23.25;13.35;;;;;;;4.46;100.00;98845.06;5066068;28;20135;-71
2022/01/09 01:54:43;;;;;;;19.40;12.00;;;;;;;4.43;100.00;98851.09;5065447;28;20123;-71
2022/01/09 01:57:09;;;;;;;17.98;11.40;;;;;;;4.43;100.00;98853.78;5066956;28;20044;-71
2022/01/09 01:59:35;;;;;;;20.45;12.20;;;;;;;4.48;100.00;98856.34;5063333;28;20129;-73
2022/01/09 02:02:00;;;;;;;20.05;11.25;;;;;;;4.58;100.00;98857.19;5067354;28;20051;-71
2022/01/09 02:04:25;;;;;;;20.90;11.57;;;;;;;4.66;100.00;98859.13;5065393;28;20041;-69
2022/01/09 02:06:51;;;;;;;17.58;7.80;;;;;;;4.73;100.00;98867.53;5065813;28;20051;-69
2022/01/09 02:09:17;;;;;;;13.93;7.25;;;;;;;4.72;100.00;98868.66;5066563;28;20080;-71
2022/01/09 02:11:42;;;;;;;12.77;5.82;;;;;;;4.76;100.00;98861.50;5066789;28;20037;-71
2022/01/09 02:14:08;;;;;;;12.20;5.85;;;;;;;4.75;100.00;98882.31;5065438;28;20445;-71
2022/01/09 02:16:39;;;;;;;13.77;4.55;;;;;;;4.69;100.00;98871.97;5060602;28;20053;-70
2022/01/09 02:19:05;;;;;;;14.05;3.40;;;;;;;4.66;100.00;98883.41;5047117;28;20478;-72
2022/01/09 02:21:31;;;;;;;14.45;3.50;;;;;;;4.59;100.00;98873.03;5030222;28;20045;-70
2022/01/09 02:23:56;;;;;;;19.80;3.65;;;;;;;4.68;100.00;98881.16;5048781;28;20090;-72
2022/01/09 02:26:24;;;;;;;9.40;2.75;;;;;;;4.67;100.00;98893.09;5050272;28;20041;-72
2022/01/09 02:28:50;;;;;;;10.43;2.60;;;;;;;4.72;100.00;98906.47;5049753;28;20036;-73
2022/01/09 02:31:16;;;;;;;12.63;2.58;;;;;;;4.83;100.00;98905.06;5049258;28;20045;-71
2022/01/09 02:33:42;;;;;;;14.60;3.08;;;;;;;4.85;100.00;98921.72;5048809;28;20558;-71
2022/01/09 02:36:09;;;;;;;21.52;3.33;;;;;;;4.88;100.00;98928.41;5044444;28;20049;-72
2022/01/09 02:38:34;;;;;;;13.13;4.05;;;;;;;4.90;100.00;98940.50;5044408;28;20378;-71
2022/01/09 02:41:00;;;;;;;26.80;3.85;;;;;;;4.94;100.00;98933.34;5047402;28;20366;-72
2022/01/09 02:43:26;;;;;;;35.22;4.63;;;;;;;4.92;100.00;98945.59;5062629;28;20044;-70
2022/01/09 02:46:05;;;;;;;21.30;4.20;;;;;;;4.89;100.00;98948.94;5060382;28;20048;-71
2022/01/09 02:48:34;;;;;;;26.10;4.40;;;;;;;4.97;100.00;98959.78;5060277;28;20414;-72
2022/01/09 02:51:05;;;;;;;29.42;5.55;;;;;;;5.00;100.00;98958.31;5060893;28;20466;-72
2022/01/09 02:53:35;;;;;;;31.90;5.35;;;;;;;5.10;100.00;98968.88;5060928;28;20075;-71
2022/01/09 02:56:02;;;;;;;49.60;7.63;;;;;;;5.20;100.00;98978.59;5058892;28;20041;-73
2022/01/09 02:58:28;;;;;;;56.35;8.18;;;;;;;5.26;100.00;98976.53;5060858;28;20048;-72
2022/01/09 03:00:53;;;;;;;72.10;9.77;;;;;;;5.37;100.00;98980.53;5060066;28;20142;-71
2022/01/09 03:03:19;;;;;;;62.17;9.52;;;;;;;5.45;100.00;98985.97;5060080;28;20605;-72
2022/01/09 03:05:44;;;;;;;58.15;9.13;;;;;;;5.51;100.00;98996.63;5060820;28;20041;-71
2022/01/09 03:08:11;;;;;;;54.38;9.73;;;;;;;5.56;100.00;98996.50;5055813;28;20075;-72
2022/01/09 03:10:37;;;;;;;64.30;8.55;;;;;;;5.52;100.00;99004.41;5039994;28;20041;-71
2022/01/09 03:13:05;;;;;;;56.50;8.55;;;;;;;5.57;100.00;99014.31;5040915;28;20047;-72
2022/01/09 03:15:30;;;;;;;66.38;8.55;;;;;;;5.59;100.00;99014.78;5040275;28;20435;-72
2022/01/09 03:17:56;;;;;;;66.07;10.02;;;;;;;5.54;100.00;99021.13;5057068;28;20032;-72
2022/01/09 03:20:23;;;;;;;53.25;8.18;;;;;;;5.59;100.00;99033.72;5057427;28;20048;-70
2022/01/09 03:22:49;;;;;;;48.88;8.48;;;;;;;5.59;100.00;99041.81;5058222;28;20123;-72
2022/01/09 03:25:15;;;;;;;60.75;9.95;;;;;;;5.60;100.00;99046.13;5057835;28;20522;-73
2022/01/09 03:27:45;;;;;;;83.25;9.80;;;;;;;5.52;100.00;99049.59;5057469;28;20037;-72
2022/01/09 03:30:11;;;;;;;65.85;9.38;;;;;;;5.52;100.00;99052.28;5059200;28;20040;-72
2022/01/09 03:32:37;;;;;;;59.05;9.55;;;;;;;5.57;100.00;99057.56;5057642;28;20718;-70
2022/01/09 03:35:08;;;;;;;53.22;9.30;;;;;;;5.52;100.00;99061.19;5057910;28;20055;-72
2022/01/09 03:37:34;;;;;;;47.97;7.97;;;;;;;5.52;100.00;99063.91;5058607;28;20072;-72
2022/01/09 03:39:59;;;;;;;51.13;7.65;;;;;;;5.53;100.00;99072.81;5056758;28;20477;-71
2022/01/09 03:42:24;;;;;;;62.05;9.30;;;;;;;5.48;100.00;99072.97;5045611;28;20037;-72
2022/01/09 03:44:50;;;;;;;62.95;8.82;;;;;;;5.50;100.00;99073.44;5039092;28;20028;-72
2022/01/09 03:47:15;;;;;;;61.42;10.32;;;;;;;5.51;100.00;99085.84;5038996;28;20045;-72
2022/01/09 03:49:41;;;;;;;40.38;8.85;;;;;;;5.51;100.00;99085.84;5038912;28;20041;-72
2022/01/09 03:52:07;;;;;;;54.10;7.78;;;;;;;5.44;100.00;99095.22;5037143;28;20457;-71
2022/01/09 03:54:36;;;;;;;48.17;7.93;;;;;;;5.44;100.00;99100.63;5039308;28;20554;-72
2022/01/09 03:57:01;;;;;;;63.33;9.50;;;;;;;5.52;100.00;99114.47;5039433;28;20055;-72
2022/01/09 03:59:26;;;;;;;58.92;9.00;;;;;;;5.51;100.00;99112.88;5037325;28;20260;-73
2022/01/09 04:01:52;;;;;;;55.72;8.23;;;;;;;5.50;100.00;99127.50;5039245;28;20339;-73
2022/01/09 04:04:17;;;;;;;65.85;8.77;;;;;;;5.50;100.00;99127.50;5039131;28;20040;-73
2022/01/09 04:06:46;;;;;;;42.22;7.70;;;;;;;5.47;100.00;99134.34;5039270;28;20572;-74
2022/01/09 04:09:19;;;;;;;52.78;10.23;;;;;;;5.52;100.00;99146.91;5039783;28;20051;-72
2022/01/09 04:11:48;;;;;;;58.22;10.23;;;;;;;5.52;100.00;99155.03;5039983;28;20036;-74
2022/01/09 04:14:14;;;;;;;47.13;7.43;;;;;;;5.53;100.00;99156.63;5038246;28;20423;-72
2022/01/09 04:16:40;;;;;;;41.72;7.68;;;;;;;5.46;100.00;99162.47;5046624;28;20052;-71
2022/01/09 04:19:10;;;;;;;45.35;6.97;;;;;;;5.50;100.00;99162.66;5059051;28;20131;-71
2022/01/09 04:21:35;;;;;;;50.10;9.13;;;;;;;5.50;100.00;99168.06;5058316;28;20405;-73
2022/01/09 04:24:00;;;;;;;37.65;8.02;;;;;;;5.43;100.00;99184.72;5058985;28;20060;-72
2022/01/09 04:26:26;;;;;;;39.20;6.43;;;;;;;5.42;100.00;99185.84;5059271;28;20415;-73
2022/01/09 04:28:51;;;;;;;45.05;6.90;;;;;;;5.43;100.00;99190.91;5040218;28;20047;-73
2022/01/09 04:31:17;;;;;;;40.55;7.25;;;;;;;5.42;100.00;99202.06;5058689;28;20223;-74
2022/01/09 04:33:42;;;;;;;41.50;7.65;;;;;;;5.47;100.00;99193.81;5056454;28;20481;-72
2022/01/09 04:36:08;;;;;;;37.08;6.57;;;;;;;5.49;100.00;99207.03;5057813;28;20481;-72
2022/01/09 04:38:33;;;;;;;41.90;7.30;;;;;;;5.47;100.00;99220.03;5057066;28;20041;-71
2022/01/09 04:40:59;;;;;;;40.33;6.65;;;;;;;5.53;100.00;99235.06;5058488;28;20457;-73
2022/01/09 04:43:24;;;;;;;43.75;6.15;;;;;;;5.41;100.00;99239.09;5045270;28;20061;-72
2022/01/09 04:45:50;;;;;;;34.67;6.38;;;;;;;5.37;100.00;99240.81;5039907;28;20047;-72
2022/01/09 04:48:15;;;;;;;40.55;6.60;;;;;;;5.31;100.00;99239.34;5041256;28;20045;-74
2022/01/09 04:50:43;;;;;;;36.13;6.40;;;;;;;5.36;100.00;99250.03;5043906;28;20033;-72
2022/01/09 04:53:09;;;;;;;34.38;7.30;;;;;;;5.36;100.00;99263.56;5042084;28;20447;-73
2022/01/09 04:55:38;;;;;;;42.53;9.15;;;;;;;5.39;100.00;99262.16;5043027;28;20378;-72
2022/01/09 04:58:04;;;;;;;45.72;7.53;;;;;;;5.42;100.00;99262.31;5043088;28;20047;-71
2022/01/09 05:00:30;;;;;;;35.25;6.40;;;;;;;5.43;100.00;99273.94;5042788;28;20405;-73
2022/01/09 05:02:55;;;;;;;37.05;6.68;;;;;;;5.37;100.00;99275.94;5051979;28;20057;-72
2022/01/09 05:05:21;;;;;;;40.22;5.95;;;;;;;5.38;100.00;99282.97;5062310;28;20114;-73
2022/01/09 05:07:46;;;;;;;40.97;6.05;;;;;;;5.42;100.00;99288.56;5062801;28;20029;-72
2022/01/09 05:10:12;;;;;;;38.22;6.78;;;;;;;5.41;100.00;99295.06;5061732;28;20048;-73
2022/01/09 05:12:38;;;;;;;35.25;5.93;;;;;;;5.40;100.00;99296.97;5062381;28;20048;-73
2022/01/09 05:15:05;;;;;;;32.53;6.35;;;;;;;5.38;100.00;99310.00;5061868;28;20053;-73
2022/01/09 05:17:31;;;;;;;39.00;5.63;;;;;;;5.35;100.00;99316.03;5061942;28;20068;-73
2022/01/09 05:20:00;;;;;;;42.03;7.40;;;;;;;5.33;100.00;99317.44;5061770;28;20127;-72
2022/01/09 05:22:26;;;;;;;30.38;6.32;;;;;;;5.35;100.00;99326.03;5061167;28;20044;-72
2022/01/09 05:24:54;;;;;;;37.72;5.53;;;;;;;5.26;100.00;99334.06;5061150;28;20444;-73
2022/01/09 05:27:20;;;;;;;36.78;5.60;;;;;;;5.30;100.00;99345.06;5061449;28;20507;-74
2022/01/09 05:29:46;;;;;;;28.20;4.75;;;;;;;5.31;100.00;99352.88;5059170;28;20405;-73
2022/01/09 05:32:12;;;;;;;37.83;6.50;;;;;;;5.29;100.00;99354.28;5061899;28;20037;-72
2022/01/09 05:34:37;;;;;;;26.17;5.60;;;;;;;5.22;100.00;99365.50;5060593;28;20567;-74
2022/01/09 05:37:04;;;;;;;29.00;5.20;;;;;;;5.21;100.00;99370.13;5061556;28;20659;-73
2022/01/09 05:39:33;;;;;;;33.17;6.63;;;;;;;5.25;100.00;99380.31;5061740;28;20478;-73
2022/01/09 05:42:02;;;;;;;24.98;5.75;;;;;;;5.28;100.00;99391.31;5060461;28;20044;-73
2022/01/09 05:44:28;;;;;;;27.88;6.43;;;;;;;5.22;100.00;99397.94;5046246;28;20122;-74
2022/01/09 05:46:53;;;;;;;27.10;6.40;;;;;;;5.28;100.00;99396.72;5059139;28;20036;-74
2022/01/09 05:49:19;;;;;;;40.25;5.80;;;;;;;5.25;100.00;99402.72;5061063;28;20094;-72
2022/01/09 05:51:44;;;;;;;39.78;5.32;;;;;;;5.27;100.00;99411.34;5060437;28;20110;-73
2022/01/09 05:54:10;;;;;;;29.52;5.20;;;;;;;5.27;100.00;99414.06;5060938;28;20047;-73
2022/01/09 05:56:35;;;;;;;32.45;7.57;;;;;;;5.21;100.00;99428.78;5060887;28;20049;-73
2022/01/09 05:59:01;;;;;;;35.20;4.90;;;;;;;5.18;100.00;99429.38;5061862;28;20456;-74
2022/01/09 06:01:27;;;;;;;24.27;6.13;;;;;;;5.18;100.00;99422.06;5061875;28;20052;-73
2022/01/09 06:03:52;;;;;;;25.10;5.00;;;;;;;5.20;100.00;99438.75;5060821;28;20328;-73
2022/01/09 06:06:18;;;;;;;35.50;6.43;;;;;;;5.10;100.00;99443.59;5061710;28;20109;-73
2022/01/09 06:08:43;;;;;;;32.53;4.88;;;;;;;5.09;100.00;99442.81;5061083;28;20055;-73
2022/01/09 06:11:09;;;;;;;33.13;5.40;;;;;;;5.16;100.00;99458.59;5061903;28;20044;-73
2022/01/09 06:13:34;;;;;;;36.13;6.07;;;;;;;5.03;100.00;99449.38;5061275;28;20040;-73
2022/01/09 06:16:00;;;;;;;42.90;5.68;;;;;;;5.09;100.00;99458.19;5061131;28;20052;-74
2022/01/09 06:18:25;;;;;;;20.27;4.10;;;;;;;4.96;100.00;99455.19;5061094;28;20040;-73
2022/01/09 06:20:51;;;;;;;32.63;5.13;;;;;;;4.97;100.00;99462.22;5060579;28;20050;-73
2022/01/09 06:23:20;;;;;;;25.30;5.68;;;;;;;4.95;100.00;99464.41;5061349;28;20116;-73
2022/01/09 06:25:49;;;;;;;24.70;5.20;;;;;;;4.96;100.00;99471.41;5062092;28;20036;-72
2022/01/09 06:28:15;;;;;;;34.03;5.00;;;;;;;4.99;100.00;99470.81;5061645;28;20048;-74
2022/01/09 06:30:41;;;;;;;27.48;5.35;;;;;;;4.97;100.00;99473.03;5062016;28;20117;-75
2022/01/09 06:33:07;;;;;;;23.65;5.78;;;;;;;4.97;100.00;99483.84;5061922;28;20044;-72
2022/01/09 06:35:32;;;;;;;31.83;5.40;;;;;;;4.95;100.00;99482.53;5061150;28;20542;-73
2022/01/09 06:37:58;;;;;;;23.25;4.28;;;;;;;5.01;100.00;99483.22;5061478;28;20044;-73
2022/01/09 06:40:23;;;;;;;35.65;5.32;;;;;;;4.95;100.00;99488.72;5061205;28;20056;-73
2022/01/09 06:42:48;;;;;;;28.70;5.25;;;;;;;4.97;100.00;99499.22;5061546;28;20480;-74
2022/01/09 06:45:14;;;;;;;28.23;3.72;;;;;;;4.91;100.00;99500.41;5053409;28;20037;-73
2022/01/09 06:47:39;;;;;;;31.58;5.70;;;;;;;4.92;100.00;99510.13;5040937;28;20041;-73
2022/01/09 06:50:06;;;;;;;25.15;4.40;;;;;;;4.92;100.00;99510.94;5054936;28;20044;-73
2022/01/09 06:52:31;;;;;;;20.17;4.72;;;;;;;4.97;100.00;99507.31;5060005;28;20805;-73
2022/01/09 06:54:57;;;;;;;26.67;4.18;;;;;;;4.94;100.00;99516.81;5046884;28;20048;-73
2022/01/09 06:57:22;;;;;;;24.42;4.45;;;;;;;4.93;100.00;99526.03;5046128;28;20048;-74
2022/01/09 06:59:48;;;;;;;29.02;5.05;;;;;;;4.91;100.00;99525.53;5045836;28;20114;-74
2022/01/09 07:02:13;;;;;;;22.75;3.83;;;;;;;4.90;100.00;99537.44;5040698;28;20037;-73
2022/01/09 07:04:38;;;;;;;32.45;4.53;;;;;;;4.81;100.00;99533.03;5043193;28;20036;-73
2022/01/09 07:07:05;;;;;;;21.42;3.90;;;;;;;4.75;100.00;99545.81;5043957;28;20037;-73
2022/01/09 07:09:30;;;;;;;24.15;4.43;;;;;;;4.79;100.00;99554.91;5042559;28;20045;-73
2022/01/09 07:11:55;;;;;;;22.85;3.72;;;;;;;4.81;100.00;99558.13;5046846;28;20162;-74
2022/01/09 07:14:21;;;;;;;21.15;4.90;;;;;;;4.89;100.00;99560.16;5043386;28;20105;-74
2022/01/09 07:16:46;;;;;;;30.45;4.70;;;;;;;4.75;100.00;99579.00;5046028;28;20753;-73
2022/01/09 07:19:12;;;;;;;35.95;5.53;;;;;;;4.68;100.00;99578.59;5051597;28;20119;-72
2022/01/09 07:21:37;;;;;;;23.17;4.10;;;;;;;4.70;100.00;99581.00;5059321;28;20499;-73
2022/01/09 07:24:03;;;;;;;18.48;4.20;;;;;;;4.60;100.00;99583.88;5045269;28;20037;-73
2022/01/09 07:26:28;;;;;;;25.85;4.13;;;;;;;4.57;100.00;99595.25;5041336;28;20091;-73
2022/01/09 07:28:54;;;;;;;28.98;4.93;;;;;;;4.50;100.00;99588.31;5043649;28;20390;-74
2022/01/09 07:31:19;;;;;;;17.80;3.78;;;;;;;4.50;100.00;99593.72;5044099;28;20032;-74
2022/01/09 07:33:45;;;;;;;21.88;5.18;;;;;;;4.43;100.00;99598.69;5040953;28;20037;-73
2022/01/09 07:36:10;;;;;;;18.48;4.22;;;;;;;4.43;100.00;99600.59;5052697;28;20040;-73
2022/01/09 07:38:36;;;;;;;22.05;4.55;;;;;;;4.30;100.00;99611.03;5041866;28;20195;-74
2022/01/09 07:41:01;;;;;;;26.35;4.85;;;;;;;4.37;100.00;99613.38;5050532;28;20072;-75
2022/01/09 07:43:27;;;;;;;19.10;5.25;;;;;;;4.34;100.00;99622.06;5043766;28;20050;-74
2022/01/09 07:45:52;;;;;;;24.10;6.10;;;;;;;4.43;100.00;99623.00;5049131;28;20049;-73
2022/01/09 07:48:18;;;;;;;25.30;5.43;;;;;;;4.47;100.00;99625.91;5050140;28;20052;-74
2022/01/09 07:50:43;;;;;;;37.63;6.38;;;;;;;4.46;100.00;99637.81;5055833;28;20070;-72
2022/01/09 07:53:10;;;;;;;26.42;5.78;;;;;;;4.54;100.00;99654.16;5053942;28;20070;-73
2022/01/09 07:55:36;;;;;;;28.63;6.22;;;;;;;4.54;100.00;99648.75;5047535;28;20036;-73
2022/01/09 07:58:02;;;;;;;22.38;5.90;;;;;;;4.46;100.00;99654.78;5048602;28;20521;-73
2022/01/09 08:00:27;;;;;;;21.52;5.72;;;;;;;4.58;100.00;99648.97;5047281;28;20492;-73
2022/01/09 08:02:53;;;;;;;26.67;6.32;;;;;;;4.51;100.00;99654.72;5054162;28;20045;-74
2022/01/09 08:05:18;;;;;;;28.65;4.80;;;;;;;4.49;100.00;99667.72;5052331;28;20045;-73
2022/01/09 08:07:44;;;;;;;27.60;5.03;;;;;;;4.49;100.00;99678.50;5049754;28;20059;-73
2022/01/09 08:10:10;;;;;;;16.55;4.38;;;;;;;4.38;100.00;99671.63;5048074;28;20114;-73
2022/01/09 08:12:36;;;;;;;17.55;4.75;;;;;;;4.42;100.00;99680.78;5048156;28;20041;-73
2022/01/09 08:15:02;;;;;;;19.77;5.03;;;;;;;4.38;100.00;99687.84;5052453;28;20091;-74
2022/01/09 08:17:27;;;;;;;22.33;4.57;;;;;;;4.43;100.00;99693.16;5054377;28;20123;-74
2022/01/09 08:19:53;;;;;;;18.30;4.10;;;;;;;4.46;100.00;99695.28;5053419;28;20051;-73
2022/01/09 08:22:18;;;;;;;25.55;6.30;;;;;;;4.51;100.00;99697.94;5057830;28;20056;-74
2022/01/09 08:24:44;;;;;;;20.65;3.95;;;;;;;4.57;100.00;99705.94;5051655;28;20037;-73
2022/01/09 08:27:10;;;;;;;19.00;4.90;;;;;;;4.59;100.00;99704.53;5059250;28;20048;-74
2022/01/09 08:29:37;;;;;;;17.45;3.90;;;;;;;4.54;100.00;99716.25;5062434;28;20033;-73
2022/01/09 08:32:03;;;;;;;17.73;4.32;;;;;;;4.59;100.00;99715.34;5051907;28;20029;-74
2022/01/09 08:34:29;;;;;;;18.45;4.85;;;;;;;4.60;100.00;99716.19;5048462;28;20033;-74
2022/01/09 08:36:54;;;;;;;15.35;3.65;;;;;;;4.63;100.00;99719.09;5059509;28;20343;-74
2022/01/09 08:39:20;;;;;;;17.13;3.67;;;;;;;4.70;100.00;99726.81;5055087;28;20023;-72
2022/01/09 08:41:45;;;;;;;15.18;3.53;;;;;;;4.64;100.00;99734.19;5069816;28;20049;-73
2022/01/09 08:44:11;;;;;;;22.10;3.47;;;;;;;4.68;100.00;99739.81;5070641;28;20051;-73
2022/01/09 08:46:39;;;;;;;13.32;3.20;;;;;;;4.68;100.00;99735.22;5056819;28;20126;-74
2022/01/09 08:49:05;;;;;;;18.58;3.35;;;;;;;4.68;100.00;99731.69;5051124;28;20029;-73
2022/01/09 08:51:31;;;;;;;16.13;3.58;;;;;;;4.67;100.00;99740.91;5043782;28;20037;-72
2022/01/09 08:53:58;;;;;;;21.67;3.40;;;;;;;4.64;100.00;99734.19;5047062;28;20399;-72
2022/01/09 08:56:26;;;;;;;15.02;3.42;;;;;;;4.64;100.00;99736.09;5040856;28;20053;-73
2022/01/09 08:58:51;;;;;;;10.35;3.05;;;;;;;4.63;100.00;99742.59;5042139;28;20047;-73
2022/01/09 09:01:17;;;;;;;16.02;3.17;;;;;;;4.53;100.00;99744.31;5046670;28;20040;-73
2022/01/09 09:03:43;;;;;;;14.30;3.67;;;;;;;4.66;100.00;99747.41;5043012;28;20066;-73
2022/01/09 09:06:10;;;;;;;11.32;3.55;;;;;;;4.54;100.00;99751.34;5043104;28;20497;-74
2022/01/09 09:08:37;;;;;;;28.10;3.80;;;;;;;4.48;100.00;99752.50;5047359;28;20024;-73
2022/01/09 09:11:04;;;;;;;17.98;4.53;;;;;;;4.44;100.00;99756.06;5058657;28;20037;-75
2022/01/09 09:13:29;;;;;;;16.02;3.78;;;;;;;4.37;100.00;99767.22;5044784;28;20037;-73
2022/01/09 09:15:54;;;;;;;14.55;3.60;;;;;;;4.42;100.00;99764.47;5039727;28;20126;-73
2022/01/09 09:18:20;;;;;;;14.02;3.65;;;;;;;4.49;100.00;99764.09;5041333;28;20661;-75
2022/01/09 09:20:45;;;;;;;21.98;4.05;;;;;;;4.65;100.00;99767.38;5043431;28;20037;-73
2022/01/09 09:23:11;;;;;;;16.77;4.07;;;;;;;4.66;100.00;99769.00;5035133;28;20098;-73
2022/01/09 09:25:37;;;;;;;12.65;3.60;;;;;;;4.71;100.00;99785.13;5039225;28;20395;-74
2022/01/09 09:28:02;;;;;;;17.83;3.85;;;;;;;4.72;100.00;99786.75;5040765;28;20112;-74
2022/01/09 09:30:28;;;;;;;14.77;4.32;;;;;;;4.89;100.00;99800.56;5049379;28;20068;-74
2022/01/09 09:32:53;;;;;;;13.30;3.95;;;;;;;4.97;100.00;99808.03;5046679;28;20036;-74
2022/01/09 09:35:19;;;;;;;14.27;3.33;;;;;;;5.05;100.00;99813.84;5045999;28;20064;-74
2022/01/09 09:37:44;;;;;;;18.98;3.75;;;;;;;5.03;100.00;99807.94;5038569;28;20048;-74
2022/01/09 09:40:10;;;;;;;14.95;4.18;;;;;;;5.24;100.00;99821.97;5047579;28;20036;-74
2022/01/09 09:42:36;;;;;;;18.75;3.28;;;;;;;5.12;100.00;99825.91;5045964;28;20041;-73
2022/01/09 09:45:07;;;;;;;16.10;4.00;;;;;;;5.52;100.00;99839.09;5052880;28;20114;-73
2022/01/09 09:47:34;;;;;;;13.95;3.25;;;;;;;5.50;100.00;99841.28;5043594;28;20837;-73
2022/01/09 09:50:02;;;;;;;17.33;3.42;;;;;;;5.43;100.00;99842.47;5050823;28;20041;-73
2022/01/09 09:52:27;;;;;;;18.95;2.85;;;;;;;5.33;100.00;99842.63;5056671;28;20052;-74
2022/01/09 09:54:54;;;;;;;14.60;2.90;;;;;;;5.15;100.00;99846.16;5048315;28;20033;-74
2022/01/09 09:57:20;;;;;;;16.55;3.03;;;;;;;5.18;100.00;99859.09;5043741;28;20356;-74
2022/01/09 09:59:46;;;;;;;17.95;3.47;;;;;;;5.15;100.00;99862.38;5046826;28;20037;-72
2022/01/09 10:02:17;;;;;;;26.95;5.18;;;;;;;5.23;100.00;99859.00;5046866;28;20581;-73
2022/01/09 10:05:06;;;;;;;10.18;3.10;;;;;;;5.18;100.00;99853.69;5050378;28;20055;-73
2022/01/09 10:07:32;;;;;;;21.23;4.28;;;;;;;5.24;100.00;99855.22;5046836;28;20170;-73
2022/01/09 10:09:59;;;;;;;20.88;4.10;;;;;;;5.34;100.00;99860.44;5043922;28;20056;-73
2022/01/09 10:12:27;;;;;;;17.08;4.28;;;;;;;5.35;100.00;99866.66;5042538;28;20532;-73
2022/01/09 10:14:54;;;;;;;12.38;4.43;;;;;;;5.42;100.00;99867.09;5047773;28;20048;-74
2022/01/09 10:17:20;;;;;;;20.33;4.35;;;;;;;5.45;100.00;99861.91;5045187;28;20432;-73
2022/01/09 10:19:51;;;;;;;25.33;5.13;;;;;;;5.59;100.00;99870.09;5049914;28;20049;-74
2022/01/09 10:22:27;;;;;;;17.35;4.55;;;;;;;5.53;100.00;99867.78;5048800;28;20072;-74
2022/01/09 10:24:53;;;;;;;32.35;4.47;;;;;;;5.49;100.00;99872.13;5046651;28;20201;-74
2022/01/09 10:27:36;;;;;;;17.85;4.47;;;;;;;5.48;100.00;99878.66;5043632;28;20114;-74
2022/01/09 10:30:05;;;;;;;;;;;;;;;5.57;100.00;99882.28;5044835;28;20040;-73
2022/01/09 10:32:32;;;;;;;15.23;4.63;;;;;;;5.55;100.00;99877.16;5050190;28;19920;-73
2022/01/09 10:35:14;;;;;;;17.65;4.60;;;;;;;5.77;100.00;99881.97;5042448;28;20264;-73
2022/01/09 10:37:43;;;;;;;14.98;3.38;;;;;;;5.76;100.00;99883.09;5043954;28;20111;-73
2022/01/09 10:40:11;;;;;;;14.98;4.53;;;;;;;6.06;100.00;99876.38;5046740;28;20166;-73
2022/01/09 10:42:38;;;;;;;19.08;3.97;;;;;;;5.92;100.00;99885.53;5048104;28;20052;-74
2022/01/09 10:45:24;;;;;;;17.70;3.35;;;;;;;6.19;100.00;99890.25;5044140;28;20029;-74
2022/01/09 10:47:55;;;;;;;14.18;3.22;;;;;;;6.20;100.00;99891.88;5042085;28;20047;-73
2022/01/09 10:50:30;;;;;;;10.65;3.25;;;;;;;6.09;100.00;99896.66;5047473;28;20406;-73
2022/01/09 10:53:26;;;;;;;22.10;3.20;;;;;;;6.08;100.00;99897.75;5047451;28;20043;-73
2022/01/09 10:56:30;;;;;;;22.33;3.45;;;;;;;6.02;100.00;99896.22;5029145;28;20051;-73
2022/01/09 10:58:57;;;;;;;12.90;3.35;;;;;;;6.00;100.00;99903.84;5032449;28;20128;-74
2022/01/09 11:01:27;;;;;;;15.13;4.20;;;;;;;6.00;100.00;99909.25;5045573;28;20028;-73
2022/01/09 11:04:00;;;;;;;18.67;4.43;;;;;;;6.06;100.00;99914.28;5043912;28;20036;-72
2022/01/09 11:06:27;;;;;;;;;;;;;;;6.05;100.00;99911.84;5043076;28;20144;-72
2022/01/09 11:08:54;;;;;;;26.33;5.10;;;;;;;6.16;100.00;99920.63;5049611;28;19959;-75
2022/01/09 11:11:26;;;;;;;20.65;4.07;;;;;;;6.08;100.00;99922.91;5047179;28;20461;-75
2022/01/09 11:13:53;;;;;;;20.08;4.45;;;;;;;6.21;100.00;99921.34;5048051;28;20037;-74
2022/01/09 11:16:37;;;;;;;18.65;4.28;;;;;;;6.37;100.00;99919.19;5049306;28;20071;-73
2022/01/09 11:19:16;;;;;;;20.88;4.80;;;;;;;6.23;100.00;99927.28;5051166;28;20081;-73
2022/01/09 11:22:06;;;;;;;12.73;3.70;;;;;;;6.28;100.00;99927.19;5048408;28;20537;-73